createdAt,value
2023-04-08T00:00:53.497Z,82.4
2023-04-08T00:02:53.573Z,82.4
2023-04-08T00:04:53.552Z,82
2023-04-08T00:06:53.611Z,82.1
2023-04-08T00:08:53.510Z,82
2023-04-08T00:10:53.470Z,82
2023-04-08T00:12:53.542Z,82
2023-04-08T00:14:53.474Z,81.9
2023-04-08T00:16:53.484Z,81.8
2023-04-08T00:18:53.467Z,82.2
2023-04-08T00:20:53.528Z,82.3
2023-04-08T00:22:53.525Z,82.2
2023-04-08T00:24:53.485Z,82.1
2023-04-08T00:26:53.490Z,81.9
2023-04-08T00:28:53.471Z,82
2023-04-08T00:30:53.536Z,82.1
2023-04-08T00:32:53.485Z,82.1
2023-04-08T00:34:53.474Z,82.1
2023-04-08T00:36:53.473Z,82.1
2023-04-08T00:38:53.464Z,82.2
2023-04-08T00:40:53.478Z,82.2
2023-04-08T00:42:53.447Z,82.1
2023-04-08T00:44:53.405Z,82
2023-04-08T00:46:53.422Z,82
2023-04-08T00:48:53.461Z,82.1
2023-04-08T00:50:53.455Z,82.1
2023-04-08T00:52:53.414Z,82.2
2023-04-08T00:54:53.486Z,82
2023-04-08T00:56:53.418Z,82.1
2023-04-08T00:58:53.562Z,82.2
2023-04-08T01:00:53.469Z,82.2
2023-04-08T01:02:53.515Z,82.2
2023-04-08T01:04:53.399Z,82.1
2023-04-08T01:06:53.495Z,82
2023-04-08T01:08:53.425Z,82
2023-04-08T01:10:53.428Z,81.7
2023-04-08T01:12:53.480Z,81.8
2023-04-08T01:14:53.402Z,81.9
2023-04-08T01:16:53.402Z,82
2023-04-08T01:18:53.453Z,82.1
2023-04-08T01:20:53.404Z,82.1
2023-04-08T01:22:53.392Z,82.3
2023-04-08T01:24:53.348Z,82.1
2023-04-08T01:26:54.473Z,82
2023-04-08T01:28:53.405Z,81.8
2023-04-08T01:30:53.437Z,81.6
2023-04-08T01:32:53.455Z,81.6
2023-04-08T01:34:53.346Z,81.7
2023-04-08T01:36:53.397Z,81.8
2023-04-08T01:38:53.389Z,81.6
2023-04-08T01:40:53.362Z,81.8
2023-04-08T01:42:53.357Z,81.7
2023-04-08T01:44:53.327Z,81.9
2023-04-08T01:46:53.408Z,82.1
2023-04-08T01:48:53.363Z,82.2
2023-04-08T01:50:53.345Z,82.4
2023-04-08T01:52:53.364Z,82.5
2023-04-08T01:54:53.396Z,82.3
2023-04-08T01:56:53.386Z,82.3
2023-04-08T01:58:53.418Z,82.3
2023-04-08T02:00:53.358Z,82.4
2023-04-08T02:02:53.748Z,82.2
2023-04-08T02:04:53.297Z,82.2
2023-04-08T02:06:53.343Z,82
2023-04-08T02:08:53.342Z,81.9
2023-04-08T02:10:53.332Z,81.2
2023-04-08T02:12:53.352Z,81.4
2023-04-08T02:14:53.336Z,81.3
2023-04-08T02:16:53.579Z,81.7
2023-04-08T02:18:53.315Z,81.5
2023-04-08T02:20:53.365Z,82
2023-04-08T02:22:53.354Z,81.9
2023-04-08T02:24:53.329Z,81.8
2023-04-08T02:26:53.314Z,81.8
2023-04-08T02:28:53.304Z,81.9
2023-04-08T02:30:53.373Z,82
2023-04-08T02:32:53.329Z,82.1
2023-04-08T02:34:53.306Z,81.9
2023-04-08T02:36:53.284Z,81.9
2023-04-08T02:38:53.349Z,82.1
2023-04-08T02:40:53.316Z,82.2
2023-04-08T02:42:53.330Z,81.8
2023-04-08T02:44:53.285Z,81.4
2023-04-08T02:46:53.313Z,81.6
2023-04-08T02:48:53.283Z,82.3
2023-04-08T02:50:53.292Z,81.5
2023-04-08T02:52:53.282Z,81.7
2023-04-08T02:54:53.276Z,81.7
2023-04-08T02:56:53.273Z,81.8
2023-04-08T02:58:53.264Z,81.4
2023-04-08T03:00:53.320Z,82
2023-04-08T03:02:53.420Z,82
2023-04-08T03:04:53.256Z,81.3
2023-04-08T03:06:53.364Z,81.7
2023-04-08T03:08:53.268Z,81.1
2023-04-08T03:10:53.280Z,81
2023-04-08T03:12:53.249Z,81.2
2023-04-08T03:14:53.252Z,81.4
2023-04-08T03:16:53.884Z,81.7
2023-04-08T03:18:53.253Z,81.7
2023-04-08T03:20:53.244Z,81.7
2023-04-08T03:22:53.258Z,81.9
2023-04-08T03:24:53.262Z,81.6
2023-04-08T03:26:53.409Z,81.8
2023-04-08T03:28:53.290Z,81.7
2023-04-08T03:30:53.225Z,81.4
2023-04-08T03:32:53.334Z,81.3
2023-04-08T03:34:53.227Z,81.9
2023-04-08T03:36:53.250Z,81.6
2023-04-08T03:38:53.261Z,81.7
2023-04-08T03:40:53.230Z,82
2023-04-08T03:42:53.239Z,82.2
2023-04-08T03:44:53.230Z,82.3
2023-04-08T03:46:53.230Z,82.1
2023-04-08T03:48:53.246Z,81.9
2023-04-08T03:50:53.291Z,82.4
2023-04-08T03:52:53.229Z,82.2
2023-04-08T03:54:53.222Z,82.3
2023-04-08T03:56:53.235Z,82.2
2023-04-08T03:58:53.212Z,81.9
2023-04-08T04:00:53.225Z,82.2
2023-04-08T04:02:53.259Z,82.1
2023-04-08T04:04:53.216Z,81.9
2023-04-08T04:06:53.195Z,81.4
2023-04-08T04:08:53.216Z,81.9
2023-04-08T04:10:53.176Z,82
2023-04-08T04:12:53.180Z,82.2
2023-04-08T04:14:53.160Z,82.1
2023-04-08T04:16:53.185Z,82
2023-04-08T04:18:53.433Z,82.1
2023-04-08T04:20:53.167Z,82.1
2023-04-08T04:22:53.212Z,82.2
2023-04-08T04:24:53.156Z,82.1
2023-04-08T04:26:53.165Z,82
2023-04-08T04:28:53.325Z,82.1
2023-04-08T04:30:54.703Z,82.1
2023-04-08T04:32:53.214Z,82
2023-04-08T04:34:53.129Z,82.1
2023-04-08T04:36:53.166Z,81.8
2023-04-08T04:38:53.312Z,82
2023-04-08T04:40:53.158Z,82
2023-04-08T04:42:53.167Z,81.9
2023-04-08T04:44:53.157Z,81.7
2023-04-08T04:46:53.166Z,81.7
2023-04-08T04:48:53.125Z,82
2023-04-08T04:50:53.124Z,82
2023-04-08T04:52:53.149Z,82.1
2023-04-08T04:54:53.169Z,82.2
2023-04-08T04:56:53.116Z,81.7
2023-04-08T04:58:53.129Z,81.8
2023-04-08T05:00:53.137Z,82
2023-04-08T05:02:53.304Z,82.1
2023-04-08T05:04:53.174Z,82.1
2023-04-08T05:06:53.116Z,82.1
2023-04-08T05:08:53.124Z,82.1
2023-04-08T05:10:53.118Z,82.1
2023-04-08T05:12:53.148Z,82.1
2023-04-08T05:14:53.092Z,82.2
2023-04-08T05:16:53.575Z,82.1
2023-04-08T05:18:53.252Z,82.1
2023-04-08T05:20:53.179Z,82.2
2023-04-08T05:22:53.423Z,82
2023-04-08T05:24:53.317Z,82.1
2023-04-08T05:26:53.512Z,82
2023-04-08T05:28:53.312Z,82.1
2023-04-08T05:30:53.318Z,82.2
2023-04-08T05:32:53.298Z,82.3
2023-04-08T05:34:53.374Z,81.3
2023-04-08T05:36:53.322Z,80.9
2023-04-08T05:38:53.365Z,81.5
2023-04-08T05:40:53.301Z,81.6
2023-04-08T05:42:53.136Z,81.2
2023-04-08T05:44:53.171Z,81
2023-04-08T05:46:53.109Z,81.3
2023-04-08T05:48:53.228Z,81.9
2023-04-08T05:50:53.316Z,81.7
2023-04-08T05:52:53.366Z,82.1
2023-04-08T05:54:53.443Z,82.2
2023-04-08T05:56:53.435Z,82
2023-04-08T05:58:53.438Z,82.1
2023-04-08T06:00:53.363Z,81.7
2023-04-08T06:02:53.589Z,81.8
2023-04-08T06:04:53.348Z,81.8
2023-04-08T06:06:53.148Z,81.2
2023-04-08T06:08:53.344Z,81.8
2023-04-08T06:10:53.227Z,82.1
2023-04-08T06:12:53.354Z,82.1
2023-04-08T06:14:53.266Z,82.1
2023-04-08T06:16:53.405Z,82.1
2023-04-08T06:18:53.821Z,82.4
2023-04-08T06:20:53.368Z,82.4
2023-04-08T06:22:53.365Z,82.4
2023-04-08T06:24:53.348Z,81.9
2023-04-08T06:26:53.325Z,81.6
2023-04-08T06:28:53.314Z,81.8
2023-04-08T06:30:53.329Z,81.3
2023-04-08T06:32:53.424Z,81.6
2023-04-08T06:34:53.295Z,81.8
2023-04-08T06:36:53.464Z,81.7
2023-04-08T06:38:53.525Z,81.8
2023-04-08T06:40:53.470Z,82.3
2023-04-08T06:42:53.476Z,82.4
2023-04-08T06:44:53.272Z,82.3
2023-04-08T06:46:53.449Z,82.1
2023-04-08T06:48:53.506Z,82.1
2023-04-08T06:50:53.247Z,81.9
2023-04-08T06:52:53.476Z,82.2
2023-04-08T06:54:53.321Z,82.3
2023-04-08T06:56:53.303Z,82.1
2023-04-08T06:58:53.508Z,82.4
2023-04-08T07:00:53.343Z,82.4
2023-04-08T07:02:53.388Z,82.4
2023-04-08T07:04:53.527Z,82.3
2023-04-08T07:06:53.431Z,82.2
2023-04-08T07:08:53.268Z,82.2
2023-04-08T07:10:53.284Z,82.2
2023-04-08T07:12:53.217Z,82.3
2023-04-08T07:14:53.274Z,82.3
2023-04-08T07:16:53.404Z,82.3
2023-04-08T07:18:53.242Z,82.5
2023-04-08T07:20:53.293Z,82.6
2023-04-08T07:22:53.225Z,82.1
2023-04-08T07:24:53.279Z,82.4
2023-04-08T07:26:53.217Z,82.3
2023-04-08T07:28:53.470Z,82.6
2023-04-08T07:30:53.321Z,82.6
2023-04-08T07:32:53.296Z,82.4
2023-04-08T07:34:53.288Z,82.5
2023-04-08T07:36:53.109Z,82.2
2023-04-08T07:38:53.199Z,82.4
2023-04-08T07:40:53.082Z,82.3
2023-04-08T07:42:53.233Z,82.2
2023-04-08T07:44:53.111Z,81.9
2023-04-08T07:46:53.231Z,81.9
2023-04-08T07:48:53.345Z,82.3
2023-04-08T07:51:07.648Z,82.4
2023-04-08T07:52:53.389Z,82.6
2023-04-08T07:54:53.101Z,82.5
2023-04-08T07:56:53.260Z,82.3
2023-04-08T07:58:53.958Z,82.6
2023-04-08T08:00:53.142Z,82.7
2023-04-08T08:02:53.240Z,82.7
2023-04-08T08:04:53.231Z,82.6
2023-04-08T08:06:53.220Z,82.4
2023-04-08T08:08:53.212Z,82.4
2023-04-08T08:10:53.297Z,82.5
2023-04-08T08:12:53.260Z,82.3
2023-04-08T08:14:53.235Z,82.4
2023-04-08T08:16:53.209Z,82.3
2023-04-08T08:18:53.174Z,82.4
2023-04-08T08:20:53.137Z,82.5
2023-04-08T08:22:57.497Z,82.4
2023-04-08T08:24:53.156Z,82.5
2023-04-08T08:26:53.174Z,82.5
2023-04-08T08:28:53.153Z,82.2
2023-04-08T08:30:53.166Z,82.1
2023-04-08T08:32:53.167Z,82.3
2023-04-08T08:34:53.224Z,82.5
2023-04-08T08:36:53.210Z,82.3
2023-04-08T08:38:53.206Z,82.5
2023-04-08T08:40:53.199Z,82
2023-04-08T08:42:53.141Z,82
2023-04-08T08:44:53.185Z,82.3
2023-04-08T08:46:53.217Z,82.5
2023-04-08T08:48:53.204Z,82.4
2023-04-08T08:50:53.145Z,82.4
2023-04-08T08:52:53.153Z,82.6
2023-04-08T08:54:53.130Z,82.8
2023-04-08T08:56:53.196Z,82.3
2023-04-08T08:58:53.171Z,82.3
2023-04-08T09:00:53.139Z,82.2
2023-04-08T09:02:53.414Z,82.1
2023-04-08T09:04:53.200Z,82.4
2023-04-08T09:06:53.125Z,82.5
2023-04-08T09:08:53.165Z,82.3
2023-04-08T09:10:53.065Z,82.6
2023-04-08T09:12:53.261Z,82.4
2023-04-08T09:14:52.962Z,82.5
2023-04-08T09:16:53.159Z,82.5
2023-04-08T09:18:53.113Z,82.7
2023-04-08T09:20:53.178Z,82.7
2023-04-08T09:22:53.052Z,82.8
2023-04-08T09:24:53.060Z,82.8
2023-04-08T09:26:53.105Z,82.5
2023-04-08T09:28:52.972Z,82.7
2023-04-08T09:30:53.102Z,82.8
2023-04-08T09:32:53.151Z,82.9
2023-04-08T09:34:53.115Z,82.8
2023-04-08T09:36:53.072Z,82.5
2023-04-08T09:38:53.139Z,82.6
2023-04-08T09:40:53.053Z,82.5
2023-04-08T09:42:52.976Z,82.6
2023-04-08T09:44:53.065Z,82.6
2023-04-08T09:46:53.051Z,82.5
2023-04-08T09:48:53.165Z,82.4
2023-04-08T09:50:53.086Z,82.5
2023-04-08T09:52:52.913Z,82.4
2023-04-08T09:54:52.756Z,82.6
2023-04-08T09:56:52.760Z,82.5
2023-04-08T09:58:53.115Z,82.6
2023-04-08T10:00:53.112Z,82.6
2023-04-08T10:02:53.036Z,82.7
2023-04-08T10:04:52.961Z,82.5
2023-04-08T10:06:53.021Z,82.2
2023-04-08T10:08:53.110Z,82.4
2023-04-08T10:10:53.010Z,82.3
2023-04-08T10:12:53.047Z,82.2
2023-04-08T10:14:53.048Z,82.3
2023-04-08T10:16:53.061Z,82.3
2023-04-08T10:18:52.923Z,82.3
2023-04-08T10:20:52.900Z,82.4
2023-04-08T10:22:52.973Z,82.3
2023-04-08T10:24:52.928Z,82.3
2023-04-08T10:26:52.939Z,82.3
2023-04-08T10:28:52.934Z,82.3
2023-04-08T10:30:52.894Z,82.3
2023-04-08T10:32:52.956Z,82.4
2023-04-08T10:34:52.891Z,82.3
2023-04-08T10:36:52.913Z,82.2
2023-04-08T10:38:52.915Z,82.6
2023-04-08T10:40:52.892Z,82.3
2023-04-08T10:42:52.921Z,82.4
2023-04-08T10:44:52.946Z,82.6
2023-04-08T10:46:52.886Z,82.4
2023-04-08T10:48:52.867Z,82.5
2023-04-08T10:50:52.918Z,82.1
2023-04-08T10:52:52.890Z,82
2023-04-08T10:54:52.896Z,82.2
2023-04-08T10:56:52.888Z,82.2
2023-04-08T10:58:52.852Z,82.3
2023-04-08T11:00:52.946Z,82
2023-04-08T11:02:53.091Z,82.3
2023-04-08T11:04:52.854Z,82.3
2023-04-08T11:06:52.893Z,81.9
2023-04-08T11:08:52.840Z,82.1
2023-04-08T11:10:52.867Z,82.3
2023-04-08T11:12:52.838Z,82.1
2023-04-08T11:14:52.799Z,82
2023-04-08T11:16:52.900Z,81.6
2023-04-08T11:18:52.882Z,81.7
2023-04-08T11:20:52.859Z,81.4
2023-04-08T11:22:52.798Z,81.4
2023-04-08T11:24:52.785Z,81.7
2023-04-08T11:26:52.780Z,81.4
2023-04-08T11:28:52.824Z,81.5
2023-04-08T11:30:52.694Z,81.9
2023-04-08T11:32:52.681Z,81.6
2023-04-08T11:34:52.772Z,81.6
2023-04-08T11:36:52.747Z,81.7
2023-04-08T11:38:52.869Z,81.7
2023-04-08T11:40:52.933Z,81.6
2023-04-08T11:42:52.773Z,81.8
2023-04-08T11:44:52.699Z,81.6
2023-04-08T11:46:52.852Z,81.6
2023-04-08T11:48:52.728Z,81.6
2023-04-08T11:50:52.684Z,81.6
2023-04-08T11:52:52.706Z,81.9
2023-04-08T11:54:52.617Z,82.1
2023-04-08T11:56:52.729Z,81.9
2023-04-08T11:58:52.740Z,82.1
2023-04-08T12:00:52.799Z,82.1
2023-04-08T12:02:52.985Z,82
2023-04-08T12:04:52.833Z,82.1
2023-04-08T12:06:52.872Z,81.8
2023-04-08T12:08:52.813Z,81.8
2023-04-08T12:10:53.993Z,81.8
2023-04-08T12:12:52.902Z,81.7
2023-04-08T12:14:52.876Z,81.8
2023-04-08T12:16:52.848Z,81.6
2023-04-08T12:18:52.836Z,81.5
2023-04-08T12:20:52.823Z,81.6
2023-04-08T12:22:52.890Z,81.5
2023-04-08T12:24:52.846Z,81.2
2023-04-08T12:26:52.946Z,80.9
2023-04-08T12:28:52.889Z,81.1
2023-04-08T12:30:52.850Z,81.3
2023-04-08T12:32:52.894Z,81.2
2023-04-08T12:34:52.712Z,81
2023-04-08T12:36:52.898Z,80.7
2023-04-08T12:38:52.982Z,80.7
2023-04-08T12:40:52.905Z,80.2
2023-04-08T12:42:52.801Z,80.4
2023-04-08T12:44:52.817Z,80.8
2023-04-08T12:46:52.823Z,80.7
2023-04-08T12:49:03.070Z,80.6
2023-04-08T12:50:52.710Z,80.5
2023-04-08T12:52:52.730Z,80.9
2023-04-08T12:54:52.704Z,80.7
2023-04-08T12:56:52.704Z,80.6
2023-04-08T12:58:52.903Z,80.7
2023-04-08T13:00:52.760Z,80.9
2023-04-08T13:02:52.841Z,81
2023-04-08T13:04:52.632Z,81
2023-04-08T13:06:52.702Z,80.7
2023-04-08T13:08:52.823Z,80.6
2023-04-08T13:10:52.735Z,80.9
2023-04-08T13:12:52.672Z,81
2023-04-08T13:14:52.641Z,81.1
2023-04-08T13:16:52.806Z,80.8
2023-04-08T13:18:52.883Z,80.5
2023-04-08T13:20:52.686Z,80.7
2023-04-08T13:22:52.737Z,79.7
2023-04-08T13:24:52.703Z,80.3
2023-04-08T13:28:57.061Z,79.2
2023-04-08T13:30:52.500Z,79.9
2023-04-08T13:32:52.570Z,79.4
2023-04-08T13:34:52.509Z,79.8
2023-04-08T13:36:52.494Z,79.9
2023-04-08T13:38:52.697Z,80.3
2023-04-08T13:40:52.539Z,80.2
2023-04-08T13:42:52.514Z,80.5
2023-04-08T13:44:52.473Z,80.3
2023-04-08T13:46:52.485Z,79.7
2023-04-08T13:48:52.681Z,80
2023-04-08T13:50:52.515Z,80.3
2023-04-08T13:52:52.518Z,80.1
2023-04-08T13:54:52.493Z,80.3
2023-04-08T13:56:52.489Z,79.3
2023-04-08T13:58:57.052Z,79.5
2023-04-08T14:00:52.568Z,79.8
2023-04-08T14:02:52.647Z,79.2
2023-04-08T14:04:52.554Z,79.1
2023-04-08T14:06:52.439Z,78.7
2023-04-08T14:08:52.757Z,78.4
2023-04-08T14:10:52.479Z,78.5
2023-04-08T14:12:52.451Z,78.6
2023-04-08T14:14:52.439Z,78
2023-04-08T14:16:52.494Z,77.9
2023-04-08T14:18:52.809Z,78.3
2023-04-08T14:20:52.437Z,78.5
2023-04-08T14:22:52.472Z,78.1
2023-04-08T14:24:52.428Z,76.8
2023-04-08T14:26:52.438Z,76.5
2023-04-08T14:28:52.582Z,77
2023-04-08T14:30:52.478Z,77.2
2023-04-08T14:32:52.497Z,77.3
2023-04-08T14:34:52.403Z,77.2
2023-04-08T14:36:52.439Z,75.6
2023-04-08T14:38:52.572Z,75.8
2023-04-08T14:40:52.451Z,75
2023-04-08T14:42:52.412Z,75.4
2023-04-08T14:44:52.410Z,75
2023-04-08T14:46:52.493Z,74.9
2023-04-08T14:48:52.510Z,74.4
2023-04-08T14:50:52.399Z,74.6
2023-04-08T14:52:52.432Z,74.6
2023-04-08T14:54:52.433Z,74
2023-04-08T14:56:52.429Z,73.9
2023-04-08T14:58:52.491Z,73.1
2023-04-08T15:00:52.381Z,72.8
2023-04-08T15:02:52.560Z,71.3
2023-04-08T15:04:52.373Z,70.3
2023-04-08T15:06:52.398Z,68.3
2023-04-08T15:08:52.553Z,67.4
2023-04-08T15:10:52.377Z,68.4
2023-04-08T15:12:52.460Z,68.9
2023-04-08T15:14:52.376Z,69.4
2023-04-08T15:16:52.407Z,66.7
2023-04-08T15:18:52.551Z,67.6
2023-04-08T15:20:53.070Z,68.2
2023-04-08T15:22:53.916Z,68.1
2023-04-08T15:24:52.358Z,65.8
2023-04-08T15:26:52.372Z,65.1
2023-04-08T15:28:52.642Z,66.4
2023-04-08T15:30:52.362Z,66.4
2023-04-08T15:32:52.448Z,63.3
2023-04-08T15:34:52.360Z,63.8
2023-04-08T15:36:52.342Z,65.5
2023-04-08T15:38:52.465Z,65.1
2023-04-08T15:40:52.334Z,64
2023-04-08T15:42:52.351Z,63.9
2023-04-08T15:44:52.334Z,64.5
2023-04-08T15:46:52.386Z,64.9
2023-04-08T15:48:52.549Z,60.4
2023-04-08T15:50:52.359Z,61.4
2023-04-08T15:52:52.323Z,63.6
2023-04-08T15:54:52.322Z,64.7
2023-04-08T15:56:52.316Z,63.1
2023-04-08T15:58:52.493Z,64
2023-04-08T16:00:52.303Z,64
2023-04-08T16:02:52.499Z,65
2023-04-08T16:04:52.299Z,65.9
2023-04-08T16:06:52.357Z,66.4
2023-04-08T16:08:52.416Z,67
2023-04-08T16:10:52.288Z,65.7
2023-04-08T16:12:52.297Z,66.6
2023-04-08T16:14:52.274Z,67.1
2023-04-08T16:16:52.271Z,66.6
2023-04-08T16:18:52.519Z,65.4
2023-04-08T16:20:52.282Z,66.3
2023-04-08T16:22:52.284Z,67
2023-04-08T16:24:52.348Z,67.6
2023-04-08T16:26:52.536Z,66.7
2023-04-08T16:28:52.542Z,66.5
2023-04-08T16:30:52.269Z,67
2023-04-08T16:32:52.357Z,66.7
2023-04-08T16:34:52.309Z,66
2023-04-08T16:36:52.269Z,66.4
2023-04-08T16:38:52.252Z,65.4
2023-04-08T16:40:52.249Z,66
2023-04-08T16:42:52.260Z,65.1
2023-04-08T16:44:52.251Z,65.8
2023-04-08T16:46:52.239Z,66
2023-04-08T16:48:52.258Z,66.1
2023-04-08T16:50:52.263Z,66.6
2023-04-08T16:52:52.258Z,66
2023-04-08T16:54:52.260Z,66.5
2023-04-08T16:56:52.257Z,66.7
2023-04-08T16:58:52.248Z,67
2023-04-08T17:00:52.251Z,66.2
2023-04-08T17:02:52.417Z,67
2023-04-08T17:04:52.219Z,66.7
2023-04-08T17:06:52.244Z,67.1
2023-04-08T17:08:52.336Z,67.1
2023-04-08T17:10:52.208Z,67.4
2023-04-08T17:12:52.211Z,67
2023-04-08T17:14:52.285Z,65
2023-04-08T17:16:52.243Z,66
2023-04-08T17:18:52.344Z,66.7
2023-04-08T17:20:52.221Z,66.7
2023-04-08T17:22:52.228Z,65.8
2023-04-08T17:24:52.199Z,66.4
2023-04-08T17:26:52.236Z,66.6
2023-04-08T17:28:52.207Z,67.2
2023-04-08T17:30:52.216Z,67.6
2023-04-08T17:32:52.262Z,67.1
2023-04-08T17:34:52.265Z,67.2
2023-04-08T17:36:52.178Z,67.2
2023-04-08T17:38:52.181Z,66.8
2023-04-08T17:40:52.188Z,65.9
2023-04-08T17:42:52.199Z,66.7
2023-04-08T17:44:52.182Z,67.2
2023-04-08T17:46:52.180Z,67.4
2023-04-08T17:48:52.181Z,66.1
2023-04-08T17:50:52.153Z,66.1
2023-04-08T17:52:52.161Z,66.2
2023-04-08T17:54:52.149Z,66.3
2023-04-08T17:56:52.174Z,66.6
2023-04-08T17:58:52.154Z,66.8
2023-04-08T18:00:52.194Z,66.2
2023-04-08T18:02:52.279Z,66.6
2023-04-08T18:04:52.162Z,65.5
2023-04-08T18:06:52.172Z,65.6
2023-04-08T18:08:52.175Z,66
2023-04-08T18:10:52.190Z,65.4
2023-04-08T18:12:57.764Z,65.7
2023-04-08T18:14:52.141Z,66.3
2023-04-08T18:16:52.227Z,66.9
2023-04-08T18:18:52.163Z,67.1
2023-04-08T18:20:52.161Z,67.2
2023-04-08T18:22:52.166Z,67
2023-04-08T18:24:52.128Z,67.3
2023-04-08T18:26:57.904Z,67.1
2023-04-08T18:28:52.148Z,67.5
2023-04-08T18:30:52.238Z,67.3
2023-04-08T18:32:52.177Z,67.2
2023-04-08T18:34:52.120Z,66.4
2023-04-08T18:36:52.134Z,66.9
2023-04-08T18:38:52.162Z,67.4
2023-04-08T18:40:52.120Z,67.2
2023-04-08T18:42:52.105Z,67.5
2023-04-08T18:44:52.123Z,68.7
2023-04-08T18:46:52.090Z,67.5
2023-04-08T18:48:52.093Z,67.7
2023-04-08T18:50:52.156Z,68
2023-04-08T18:52:52.087Z,68.4
2023-04-08T18:54:52.103Z,68.9
2023-04-08T18:56:52.134Z,69.3
2023-04-08T18:58:52.099Z,69.3
2023-04-08T19:00:52.089Z,69.3
2023-04-08T19:02:52.168Z,69.1
2023-04-08T19:04:52.121Z,69.4
2023-04-08T19:06:52.139Z,69
2023-04-08T19:08:52.091Z,69.4
2023-04-08T19:10:52.109Z,69.5
2023-04-08T19:12:52.101Z,69.3
2023-04-08T19:14:52.075Z,67.9
2023-04-08T19:16:52.057Z,68.5
2023-04-08T19:18:52.105Z,69
2023-04-08T19:20:52.069Z,69.5
2023-04-08T19:22:52.150Z,70.2
2023-04-08T19:24:53.780Z,70.3
2023-04-08T19:26:52.063Z,70.2
2023-04-08T19:28:52.073Z,70.5
2023-04-08T19:30:52.074Z,70.8
2023-04-08T19:32:52.104Z,70.5
2023-04-08T19:34:52.068Z,70.4
2023-04-08T19:36:52.055Z,70.7
2023-04-08T19:38:52.061Z,71
2023-04-08T19:40:52.046Z,71
2023-04-08T19:42:52.072Z,70.5
2023-04-08T19:44:52.056Z,71.2
2023-04-08T19:46:52.945Z,71.3
2023-04-08T19:48:52.064Z,71.7
2023-04-08T19:50:52.338Z,71.6
2023-04-08T19:52:52.019Z,71.4
2023-04-08T19:54:52.049Z,71.5
2023-04-08T19:56:51.975Z,70.9
2023-04-08T19:58:52.133Z,71
2023-04-08T20:00:52.013Z,71.5
2023-04-08T20:02:52.195Z,71.1
2023-04-08T20:04:52.018Z,71.6
2023-04-08T20:06:51.995Z,71.8
2023-04-08T20:08:52.416Z,71.9
2023-04-08T20:10:51.999Z,72.4
2023-04-08T20:12:52.082Z,72.8
2023-04-08T20:14:51.984Z,72.1
2023-04-08T20:16:52.036Z,72.5
2023-04-08T20:18:52.282Z,72.4
2023-04-08T20:20:51.986Z,72.7
2023-04-08T20:22:51.984Z,72.6
2023-04-08T20:24:52.039Z,72.5
2023-04-08T20:26:52.098Z,72.8
2023-04-08T20:28:52.216Z,72.8
2023-04-08T20:30:52.071Z,73.2
2023-04-08T20:32:52.108Z,73.1
2023-04-08T20:34:52.061Z,73.1
2023-04-08T20:36:51.957Z,73.3
2023-04-08T20:38:52.308Z,73
2023-04-08T20:40:51.953Z,73.5
2023-04-08T20:42:51.995Z,73.6
2023-04-08T20:44:51.986Z,73.9
2023-04-08T20:46:51.957Z,73.9
2023-04-08T20:48:52.032Z,73.6
2023-04-08T20:50:52.022Z,73.5
2023-04-08T20:52:51.983Z,73.9
2023-04-08T20:54:51.975Z,74.3
2023-04-08T20:56:51.936Z,74.4
2023-04-08T20:58:52.113Z,74.7
2023-04-08T21:00:51.992Z,74.2
2023-04-08T21:02:52.000Z,74.5
2023-04-08T21:04:51.981Z,74.7
2023-04-08T21:06:52.032Z,75.2
2023-04-08T21:08:52.155Z,75.4
2023-04-08T21:10:51.919Z,75.3
2023-04-08T21:12:52.005Z,75.3
2023-04-08T21:14:51.956Z,75.6
2023-04-08T21:16:51.930Z,75.5
2023-04-08T21:18:52.152Z,75.5
2023-04-08T21:20:51.923Z,75.6
2023-04-08T21:22:51.925Z,75.8
2023-04-08T21:24:51.917Z,75.7
2023-04-08T21:26:51.936Z,75.9
2023-04-08T21:28:52.063Z,75.9
2023-04-08T21:30:51.922Z,76
2023-04-08T21:32:51.937Z,76
2023-04-08T21:34:51.899Z,76.2
2023-04-08T21:36:51.878Z,76.1
2023-04-08T21:38:52.184Z,76
2023-04-08T21:40:51.899Z,76.3
2023-04-08T21:42:51.893Z,76.3
2023-04-08T21:44:51.881Z,76.6
2023-04-08T21:46:51.914Z,76.3
2023-04-08T21:48:51.980Z,76.6
2023-04-08T21:50:51.896Z,76.8
2023-04-08T21:52:51.880Z,77.4
2023-04-08T21:54:51.860Z,77.1
2023-04-08T21:56:51.883Z,76.9
2023-04-08T21:58:52.062Z,77.2
2023-04-08T22:00:51.864Z,77.5
2023-04-08T22:02:51.969Z,77.3
2023-04-08T22:04:51.876Z,77.1
2023-04-08T22:06:51.869Z,77.1
2023-04-08T22:08:51.954Z,77.1
2023-04-08T22:10:51.847Z,77.3
2023-04-08T22:12:51.854Z,77.3
2023-04-08T22:14:51.866Z,77.3
2023-04-08T22:16:51.972Z,77.3
2023-04-08T22:18:52.019Z,77.9
2023-04-08T22:20:51.829Z,78.8
2023-04-08T22:22:51.848Z,78.2
2023-04-08T22:24:51.852Z,78.2
2023-04-08T22:26:51.835Z,77.7
2023-04-08T22:28:52.059Z,77.6
2023-04-08T22:30:51.886Z,77.5
2023-04-08T22:32:51.884Z,77.5
2023-04-08T22:34:51.806Z,77.7
2023-04-08T22:36:51.810Z,77.8
2023-04-08T22:38:52.026Z,77.6
2023-04-08T22:40:51.830Z,77.8
2023-04-08T22:42:51.902Z,78
2023-04-08T22:44:51.837Z,78.1
2023-04-08T22:46:51.875Z,78
2023-04-08T22:48:51.988Z,77.9
2023-04-08T22:50:51.805Z,77.7
2023-04-08T22:52:51.797Z,77.7
2023-04-08T22:54:51.793Z,77.9
2023-04-08T22:56:51.812Z,77.9
2023-04-08T22:58:51.944Z,77.8
2023-04-08T23:00:51.796Z,77.9
2023-04-08T23:02:51.865Z,77.9
2023-04-08T23:04:51.779Z,78.2
2023-04-08T23:06:51.804Z,77.9
2023-04-08T23:08:51.946Z,78.1
2023-04-08T23:10:51.805Z,77.9
2023-04-08T23:12:51.780Z,77.9
2023-04-08T23:14:51.779Z,78.3
2023-04-08T23:16:51.816Z,78.2
2023-04-08T23:18:52.037Z,78.3
2023-04-08T23:20:51.778Z,78.2
2023-04-08T23:22:51.778Z,78
2023-04-08T23:24:51.744Z,77.9
2023-04-08T23:26:51.870Z,78.1
2023-04-08T23:28:51.891Z,78.2
2023-04-08T23:30:51.800Z,78.4
2023-04-08T23:32:51.770Z,78.1
2023-04-08T23:34:51.807Z,77.8
2023-04-08T23:36:51.765Z,78.2
2023-04-08T23:38:51.994Z,78.3
2023-04-08T23:40:51.753Z,78.4
2023-04-08T23:42:51.726Z,78.6
2023-04-08T23:44:51.748Z,78.7
2023-04-08T23:46:53.065Z,78.2
2023-04-08T23:48:52.091Z,78.5
2023-04-08T23:50:51.723Z,78.4
2023-04-08T23:52:51.718Z,78.6
2023-04-08T23:54:51.713Z,78.6
2023-04-08T23:56:51.724Z,78.6
2023-04-08T23:58:52.050Z,78.5
